Latest Weather Observations for Grove

IDT60801

Issued at 7:02 am EST Friday 1 July 2016 (issued every 30 minutes, with the page automatically refreshed every 10 minutes)

About weather observations | Map of weather stations | Latest weather observations for TAS | Other Formats
Station Details ID: 094220 Name: GROVE (RESEARCH STATION) Lat: -42.99 Lon: 147.07 Height: 65.0 m
Data from the previous 72 hours. | See also: Recent months at Grove
Date/Time
EST
Temp
°C
App
Temp
°C
Dew
Point
°C
Rel
Hum
%
Delta-T
°C
Wind Press
QNH
hPa
Press
MSL
hPa
Rain since
9am
mm
Dir  Spd
km/h
Gust
km/h
Spd
kts
Gust
kts
01/07:00am 1.2 -0.6 1.2 100 0.0 CALM 0 0 0 0 - - 0.6
01/06:30am 2.0 -1.0 2.0 100 0.0 NW 7 11 4 6 - - 0.6
01/06:00am 2.0 -1.4 1.7 98 0.1 NNE 9 13 5 7 - - 0.6
01/05:30am 2.1 0.1 2.1 100 0.0 NE 2 7 1 4 - - 0.4
01/05:00am 2.9 0.2 2.9 100 0.0 NNW 6 11 3 6 - - 0.4
01/04:30am 3.4 1.6 3.4 100 0.0 NE 2 6 1 3 - - 0.4
01/04:00am 3.2 0.4 3.2 100 0.0 E 7 9 4 5 - - 0.4
01/03:30am 3.9 1.4 3.9 100 0.0 NW 6 9 3 5 - - 0.4
01/03:00am 4.4 2.4 4.4 100 0.0 NE 4 7 2 4 - - 0.4
01/02:30am 4.8 2.3 4.8 100 0.0 NE 7 9 4 5 - - 0.4
01/02:00am 4.7 2.3 4.5 99 0.1 WNW 6 7 3 4 - - 0.4
01/01:30am 3.6 1.1 3.6 100 0.0 SSW 6 7 3 4 - - 0.4
01/01:00am 4.7 2.2 4.5 99 0.1 N 7 9 4 5 - - 0.4
01/12:30am 5.0 2.5 5.0 100 0.0 ENE 7 9 4 5 - - 0.4
01/12:00am 5.5 4.5 5.5 100 0.0 CALM 0 0 0 0 - - 0.4
 
Date/Time
EST
Temp
°C
App
Temp
°C
Dew
Point
°C
Rel
Hum
%
Delta-T
°C
Wind Press
QNH
hPa
Press
MSL
hPa
Rain since
9am
mm
Dir  Spd
km/h
Gust
km/h
Spd
kts
Gust
kts
30/11:30pm 5.3 3.4 5.1 99 0.1 NNW 4 7 2 4 - - 0.4
30/11:00pm 5.3 3.1 5.3 100 0.0 NNE 6 7 3 4 - - 0.4
30/10:30pm 5.6 3.2 5.4 99 0.1 NE 7 9 4 5 - - 0.4
30/10:00pm 5.3 4.2 5.3 100 0.0 CALM 0 0 0 0 - - 0.4
30/09:30pm 6.0 5.0 5.5 97 0.2 CALM 0 0 0 0 - - 0.4
30/09:00pm 6.5 5.7 6.5 100 0.0 CALM 0 0 0 0 - - 0.4
30/08:30pm 7.2 5.4 7.0 99 0.1 NE 6 7 3 4 - - 0.4
30/08:00pm 8.0 7.4 7.6 97 0.2 CALM 0 0 0 0 - - 0.4
30/07:30pm 8.4 6.8 8.0 97 0.2 W 6 9 3 5 - - 0.4
30/07:00pm 9.0 7.2 8.0 93 0.5 ENE 7 9 4 5 - - 0.4
30/06:30pm 9.0 7.3 8.2 95 0.4 NE 7 9 4 5 - - 0.2
30/06:00pm 9.7 8.5 8.0 89 0.8 W 4 6 2 3 - - 0.0
30/05:30pm 10.4 8.6 7.3 81 1.5 SW 6 9 3 5 - - 0.0
30/05:00pm 11.4 9.1 5.6 67 2.7 SSW 7 11 4 6 - - 0.0
30/04:30pm 12.0 8.8 5.1 62 3.2 N 11 19 6 10 - - 0.0
30/04:00pm 12.1 10.3 5.2 62 3.2 NNW 4 7 2 4 - - 0.0
30/03:30pm 12.5 9.2 4.7 59 3.6 WNW 11 17 6 9 - - 0.0
30/03:00pm 12.8 10.0 5.0 59 3.6 NW 9 15 5 8 - - 0.0
30/02:30pm 13.1 9.9 4.9 57 3.8 NNW 11 20 6 11 - - 0.0
30/02:00pm 13.3 9.1 3.8 52 4.3 NNW 15 24 8 13 - - 0.0
30/01:30pm 13.5 11.0 4.6 55 4.1 SSW 7 19 4 10 - - 0.0
30/01:00pm 12.6 10.3 5.6 62 3.3 ESE 7 13 4 7 - - 0.0
30/12:30pm 12.2 9.7 4.5 59 3.5 ESE 7 9 4 5 - - 0.0
30/12:00pm 12.4 9.8 4.0 56 3.8 NNE 7 13 4 7 - - 0.0
30/11:30am 12.6 10.1 4.8 59 3.6 ESE 7 11 4 6 - - 0.0
30/11:00am 12.8 9.0 4.0 55 4.0 ENE 13 24 7 13 - - 0.0
30/10:30am 11.6 9.4 5.3 65 2.9 WSW 6 7 3 4 - - 0.0
30/10:00am 11.2 8.3 4.6 64 3.0 NE 9 19 5 10 - - 0.0
30/09:30am 9.1 6.7 5.1 76 1.8 N 7 11 4 6 - - 0.0
30/09:00am 9.0 6.8 5.2 77 1.7 NNE 6 15 3 8 - - 0.0
30/08:30am 9.5 6.8 3.5 66 2.6 NNW 7 11 4 6 - - 0.0
30/08:00am 10.2 7.3 2.8 60 3.2 NNE 7 11 4 6 - - 0.0
30/07:30am 10.4 7.2 2.8 59 3.3 NE 9 17 5 9 - - 0.0
30/07:00am 10.0 6.6 1.6 56 3.5 NE 9 17 5 9 - - 0.0
30/06:30am 9.7 6.3 1.8 58 3.3 W 9 15 5 8 - - 0.0
30/06:00am 10.2 5.6 1.3 54 3.7 NE 15 22 8 12 - - 0.0
30/05:30am 10.3 7.2 1.5 54 3.7 E 7 11 4 6 - - 0.0
30/05:00am 10.5 7.5 1.7 54 3.7 E 7 15 4 8 - - 0.0
30/04:30am 10.7 6.8 1.4 52 3.9 WNW 11 19 6 10 - - 0.0
30/04:00am 10.4 7.7 2.8 59 3.3 NE 6 11 3 6 - - 0.0
30/03:30am 11.1 7.3 2.0 53 3.9 WNW 11 20 6 11 - - 0.0
30/03:00am 10.8 7.2 2.7 57 3.5 WSW 11 20 6 11 - - 0.0
30/02:30am 10.1 7.3 3.2 62 3.0 WSW 7 15 4 8 - - 0.0
30/02:00am 9.2 6.7 4.0 70 2.3 SSE 6 9 3 5 - - 0.0
30/01:30am 8.9 5.7 3.3 68 2.4 SSW 9 13 5 7 - - 0.0
30/01:00am 8.3 5.7 4.4 76 1.7 SSW 7 9 4 5 - - 0.0
30/12:30am 8.5 5.8 3.9 73 2.0 SSW 7 11 4 6 - - 0.0
30/12:00am 9.8 6.6 2.8 61 3.0 W 9 15 5 8 - - 0.0
 
Date/Time
EST
Temp
°C
App
Temp
°C
Dew
Point
°C
Rel
Hum
%
Delta-T
°C
Wind Press
QNH
hPa
Press
MSL
hPa
Rain since
9am
mm
Dir  Spd
km/h
Gust
km/h
Spd
kts
Gust
kts
29/11:30pm 10.0 6.8 3.1 62 3.0 W 9 15 5 8 - - 0.0
29/11:00pm 10.5 7.3 2.9 59 3.3 NNW 9 17 5 9 - - 0.0
29/10:30pm 10.2 5.5 3.3 62 3.0 N 17 26 9 14 - - 0.0
29/10:00pm 5.8 2.9 4.9 94 0.4 NE 9 13 5 7 - - 0.0
29/09:30pm 4.4 2.4 4.2 99 0.1 NNE 4 9 2 5 - - 0.0
29/09:00pm 5.1 3.9 4.6 97 0.2 CALM 0 0 0 0 - - 0.0
29/08:30pm 5.2 2.9 4.7 97 0.2 NNE 6 9 3 5 - - 0.0
29/08:00pm 5.8 3.6 5.3 97 0.2 N 6 7 3 4 - - 0.0
29/07:30pm 6.6 4.3 5.7 94 0.4 NNE 7 13 4 7 - - 0.0
29/07:00pm 5.7 3.3 5.2 97 0.2 NNE 7 11 4 6 - - 0.0
29/06:30pm 7.0 4.7 5.9 93 0.5 NE 7 13 4 7 - - 0.0
29/06:00pm 7.3 6.1 6.4 94 0.4 WSW 2 9 1 5 - - 0.0
29/05:30pm 8.6 6.6 6.9 89 0.8 NNE 7 11 4 6 - - 0.0
29/05:00pm 10.2 8.7 6.8 79 1.6 WSW 4 6 2 3 - - 0.0
29/04:30pm 11.5 9.5 6.9 73 2.2 N 7 11 4 6 - - 0.0
29/04:00pm 12.9 11.8 6.7 66 3.0 WSW 2 6 1 3 - - 0.0
29/03:30pm 13.3 10.9 5.4 59 3.7 W 7 15 4 8 - - 0.0
29/03:00pm 13.7 10.7 5.9 59 3.7 WNW 11 19 6 10 - - 0.0
29/02:30pm 14.1 10.6 5.4 56 4.1 W 13 22 7 12 - - 0.0
29/02:00pm 13.7 11.8 6.7 62 3.4 ESE 6 9 3 5 - - 0.0
29/01:30pm 14.0 12.0 6.1 59 3.8 W 6 11 3 6 - - 0.0
29/01:00pm 13.6 10.8 7.0 64 3.2 NNE 11 17 6 9 - - 0.0
29/12:30pm 13.2 9.2 6.8 65 3.1 N 17 20 9 11 - - 0.0
29/12:00pm 12.7 9.5 6.9 68 2.8 N 13 24 7 13 - - 0.0
29/11:30am 12.3 8.8 7.4 72 2.4 N 15 26 8 14 - - 0.0
29/11:00am 12.0 9.7 7.5 74 2.2 NNE 9 17 5 9 - - 0.0
29/10:30am 11.8 9.8 8.8 82 1.5 ENE 9 11 5 6 - - 0.0
29/10:00am 10.9 9.2 8.5 85 1.2 ENE 7 9 4 5 - - 0.0
29/09:30am 9.3 8.6 8.7 96 0.3 NNE 2 7 1 4 - - 0.0
29/09:00am 8.8 7.3 8.4 97 0.2 NNE 6 7 3 4 - - 4.8
29/08:30am 8.5 6.9 8.1 97 0.2 N 6 7 3 4 - - 4.8
29/08:00am 8.3 6.5 7.9 97 0.2 ENE 7 11 4 6 - - 4.8
29/07:30am 8.2 6.6 7.8 97 0.2 NE 6 9 3 5 - - 4.8
29/07:00am 8.4 6.8 7.8 96 0.3 E 6 9 3 5 - - 4.8
29/06:30am 8.4 6.6 8.0 97 0.2 N 7 9 4 5 - - 4.8
29/06:00am 9.0 7.2 8.0 93 0.5 ESE 7 9 4 5 - - 4.8
29/05:30am 9.1 7.4 8.3 95 0.4 ENE 7 11 4 6 - - 4.8
29/05:00am 9.6 6.7 8.2 91 0.7 E 13 17 7 9 - - 4.4
29/04:30am 9.2 7.2 8.6 96 0.3 ENE 9 13 5 7 - - 4.2
29/04:00am 9.6 9.2 8.4 92 0.6 CALM 0 0 0 0 - - 3.6
29/03:30am 9.8 7.3 8.4 91 0.7 SSW 11 19 6 10 - - 2.0
29/03:00am 12.1 9.2 6.4 68 2.7 SSW 11 19 6 10 - - 1.0
29/02:30am 13.4 11.5 4.8 56 4.0 WSW 4 19 2 10 - - 1.0
29/02:00am 13.6 10.7 4.8 55 4.1 NW 9 26 5 14 - - 1.0
29/01:30am 13.6 9.6 4.8 55 4.1 WNW 15 46 8 25 - - 1.0
29/01:23am 13.9 7.3 4.1 51 4.5 NNW 28 46 15 25 - - 1.0
29/01:00am 13.6 9.6 4.8 55 4.1 NNW 15 30 8 16 - - 1.0
29/12:30am 13.7 9.2 4.4 53 4.3 NNW 17 26 9 14 - - 1.0
29/12:00am 13.7 8.2 4.1 52 4.4 NNW 22 50 12 27 - - 1.0
 
Date/Time
EST
Temp
°C
App
Temp
°C
Dew
Point
°C
Rel
Hum
%
Delta-T
°C
Wind Press
QNH
hPa
Press
MSL
hPa
Rain since
9am
mm
Dir  Spd
km/h
Gust
km/h
Spd
kts
Gust
kts
28/11:53pm 13.8 7.1 3.9 51 4.5 N 28 50 15 27 - - 1.0
28/11:30pm 13.5 8.5 4.6 55 4.1 NNW 20 35 11 19 - - 1.0
28/11:00pm 13.0 8.1 5.0 58 3.7 NNW 20 35 11 19 - - 0.8
28/10:30pm 12.8 9.2 5.0 59 3.6 NNW 13 30 7 16 - - 0.8
28/10:00pm 13.2 8.2 4.8 56 3.9 NW 20 35 11 19 - - 0.8
28/09:30pm 13.2 8.5 5.0 57 3.8 WNW 19 30 10 16 - - 0.8
28/09:00pm 13.0 9.2 5.8 61 3.4 W 15 32 8 17 - - 0.8
28/08:30pm 12.5 9.4 7.1 69 2.6 NW 13 24 7 13 - - 0.8
28/08:00pm 12.0 9.4 7.9 76 2.0 W 11 24 6 13 - - 0.8
28/07:30pm 11.5 9.8 8.2 80 1.6 WSW 7 9 4 5 - - 0.8
28/07:00pm 12.3 9.7 7.6 73 2.3 W 11 19 6 10 - - 0.6
28/06:30pm 12.7 9.6 7.4 70 2.6 WNW 13 24 7 13 - - 0.4
28/06:00pm 12.6 9.9 7.2 69 2.6 WNW 11 19 6 10 - - 0.4
28/05:30pm 12.8 10.0 7.0 68 2.8 W 11 19 6 10 - - 0.2
28/05:00pm 13.7 10.7 5.9 59 3.7 NW 11 22 6 12 - - 0.2
28/04:30pm 13.6 9.1 6.3 61 3.5 NW 19 32 10 17 - - 0.2
28/04:00pm 14.1 9.3 5.4 56 4.1 N 20 32 11 17 - - 0.2
28/03:30pm 14.0 10.2 5.8 57 3.9 W 15 24 8 13 - - 0.2
28/03:00pm 14.4 10.5 5.3 54 4.3 NW 15 30 8 16 - - 0.2
28/02:30pm 14.5 9.7 4.9 52 4.5 W 19 39 10 21 - - 0.2
28/02:00pm 14.9 10.9 4.9 51 4.7 W 15 30 8 16 - - 0.2
28/01:30pm 15.1 10.3 5.7 53 4.5 NW 20 32 11 17 - - 0.2
28/01:00pm 15.0 10.5 6.3 56 4.2 NW 19 32 10 17 - - 0.2
28/12:30pm 15.3 10.2 6.0 54 4.5 NW 22 32 12 17 - - 0.2
28/12:00pm 14.8 10.3 6.3 56 4.1 WNW 19 33 10 18 - - 0.2
28/11:30am 14.3 11.6 7.2 62 3.5 WNW 11 26 6 14 - - 0.2
28/11:00am 14.4 11.4 7.5 63 3.4 NNW 13 20 7 11 - - 0.2
28/10:30am 14.0 12.3 8.2 68 2.9 WNW 7 13 4 7 - - 0.2
28/10:00am 13.1 11.4 8.3 72 2.4 W 7 30 4 16 - - 0.2
28/09:30am 11.8 10.4 9.4 85 1.2 SE 7 9 4 5 - - 0.2
28/09:00am 11.2 10.1 8.4 83 1.4 WSW 4 9 2 5 - - 1.2
28/08:30am 11.4 9.0 7.2 75 2.0 SSE 9 19 5 10 - - 1.0
28/08:00am 10.5 8.6 7.6 82 1.4 ENE 7 15 4 8 - - 1.0
28/07:30am 10.3 8.6 7.4 82 1.4 N 6 13 3 7 - - 0.8

Other Formats:

Comma delimited format used in spreadsheet applications
http://www.bom.gov.au/fwo/IDT60801/IDT60801.95977.axf

JavaScript Object Notation format (JSON) in row-major order
http://www.bom.gov.au/fwo/IDT60801/IDT60801.95977.json